sensor_id;sensor_type;location;lat;lon;timestamp;pressure;altitude;pressure_sealevel;temperature;humidity
64243;BME280;50573;51.512;5.386;2023-07-09T00:08:02;170799.47;;;23.64;79.75
64243;BME280;50573;51.512;5.386;2023-07-09T00:18:07;170766.09;;;23.51;80.91
64243;BME280;50573;51.512;5.386;2023-07-09T00:28:12;170740.72;;;23.42;83.04
64243;BME280;50573;51.512;5.386;2023-07-09T00:38:20;170708.66;;;23.29;83.74
64243;BME280;50573;51.512;5.386;2023-07-09T00:48:24;170672.59;;;23.16;83.50
64243;BME280;50573;51.512;5.386;2023-07-09T00:58:30;170643.22;;;23.05;84.74
64243;BME280;50573;51.512;5.386;2023-07-09T01:08:36;170599.16;;;22.88;85.69
64243;BME280;50573;51.512;5.386;2023-07-09T01:18:44;170561.81;;;22.74;86.96
64243;BME280;50573;51.512;5.386;2023-07-09T01:28:49;170515.03;;;22.57;89.07
64243;BME280;50573;51.512;5.386;2023-07-09T01:38:52;170481.63;;;22.44;90.59
64243;BME280;50573;51.512;5.386;2023-07-09T01:48:57;170450.94;;;22.33;91.51
64243;BME280;50573;51.512;5.386;2023-07-09T01:59:00;170436.28;;;22.27;93.61
64243;BME280;50573;51.512;5.386;2023-07-09T02:09:05;170448.28;;;22.32;95.32
64243;BME280;50573;51.512;5.386;2023-07-09T02:19:08;170476.28;;;22.42;93.77
64243;BME280;50573;51.512;5.386;2023-07-09T02:29:12;170456.28;;;22.35;95.19
64243;BME280;50573;51.512;5.386;2023-07-09T02:39:16;170424.22;;;22.23;95.70
64243;BME280;50573;51.512;5.386;2023-07-09T02:49:22;170408.22;;;22.17;94.49
64243;BME280;50573;51.512;5.386;2023-07-09T02:59:25;170373.53;;;22.04;95.25
64243;BME280;50573;51.512;5.386;2023-07-09T03:09:32;170358.88;;;21.98;95.86
64243;BME280;50573;51.512;5.386;2023-07-09T03:19:35;170346.84;;;21.93;96.53
64243;BME280;50573;51.512;5.386;2023-07-09T03:29:40;170309.50;;;21.79;96.93
64243;BME280;50573;51.512;5.386;2023-07-09T03:39:45;170284.09;;;21.70;97.10
64243;BME280;50573;51.512;5.386;2023-07-09T03:49:49;170264.09;;;21.62;97.96
64243;BME280;50573;51.512;5.386;2023-07-09T03:59:52;170258.75;;;21.60;98.97
64243;BME280;50573;51.512;5.386;2023-07-09T04:09:57;170301.50;;;21.76;100.00
64243;BME280;50573;51.512;5.386;2023-07-09T04:20:00;170396.22;;;22.12;100.00
64243;BME280;50573;51.512;5.386;2023-07-09T04:30:11;170485.63;;;22.46;96.66
64243;BME280;50573;51.512;5.386;2023-07-09T04:40:17;170541.75;;;22.67;96.55
64243;BME280;50573;51.512;5.386;2023-07-09T04:50:23;170632.53;;;23.01;95.49
64243;BME280;50573;51.512;5.386;2023-07-09T05:00:27;170734.06;;;23.39;93.42
64243;BME280;50573;51.512;5.386;2023-07-09T05:10:31;170851.56;;;23.83;90.77
64243;BME280;50573;51.512;5.386;2023-07-09T05:20:34;170957.16;;;24.23;88.07
64243;BME280;50573;51.512;5.386;2023-07-09T05:30:42;171069.38;;;24.65;85.94
64243;BME280;50573;51.512;5.386;2023-07-09T05:40:46;171189.69;;;25.10;84.15
64243;BME280;50573;51.512;5.386;2023-07-09T05:50:52;171328.75;;;25.62;80.37
64243;BME280;50573;51.512;5.386;2023-07-09T06:00:56;171463.84;;;26.13;77.27
64243;BME280;50573;51.512;5.386;2023-07-09T06:11:02;171584.19;;;26.58;74.92
64243;BME280;50573;51.512;5.386;2023-07-09T06:21:06;171739.41;;;27.16;72.65
64243;BME280;50573;51.512;5.386;2023-07-09T06:31:13;171873.25;;;27.67;70.21
64243;BME280;50573;51.512;5.386;2023-07-09T06:41:16;171996.41;;;28.13;65.97
64243;BME280;50573;51.512;5.386;2023-07-09T06:51:21;172112.88;;;28.57;64.84
64243;BME280;50573;51.512;5.386;2023-07-09T07:01:24;172214.66;;;28.95;63.06
64243;BME280;50573;51.512;5.386;2023-07-09T07:11:29;172225.34;;;28.99;60.50
64243;BME280;50573;51.512;5.386;2023-07-09T07:21:32;172335.22;;;29.40;59.38
64243;BME280;50573;51.512;5.386;2023-07-09T07:31:36;172370.03;;;29.53;55.54
64243;BME280;50573;51.512;5.386;2023-07-09T07:41:40;172457.16;;;29.86;55.63
64243;BME280;50573;51.512;5.386;2023-07-09T07:51:45;172490.63;;;29.98;54.79
64243;BME280;50573;51.512;5.386;2023-07-09T08:01:50;172608.59;;;30.42;54.04
64243;BME280;50573;51.512;5.386;2023-07-09T08:11:55;172659.47;;;30.61;52.93
64243;BME280;50573;51.512;5.386;2023-07-09T08:21:59;172702.41;;;30.77;53.22
64243;BME280;50573;51.512;5.386;2023-07-09T08:32:04;172715.81;;;30.82;51.72
64243;BME280;50573;51.512;5.386;2023-07-09T08:42:11;172845.84;;;31.31;51.10
64243;BME280;50573;51.512;5.386;2023-07-09T08:52:24;172935.66;;;31.65;49.86
64243;BME280;50573;51.512;5.386;2023-07-09T09:02:32;173026.88;;;31.99;50.31
64243;BME280;50573;51.512;5.386;2023-07-09T09:12:40;173088.53;;;32.22;49.69
64243;BME280;50573;51.512;5.386;2023-07-09T09:22:47;173213.28;;;32.69;49.29
64243;BME280;50573;51.512;5.386;2023-07-09T09:32:54;173271.03;;;32.90;46.91
64243;BME280;50573;51.512;5.386;2023-07-09T09:42:58;173374.31;;;33.29;46.03
64243;BME280;50573;51.512;5.386;2023-07-09T09:53:07;173403.78;;;33.40;45.42
64243;BME280;50573;51.512;5.386;2023-07-09T10:03:11;173500.44;;;33.76;42.98
64243;BME280;50573;51.512;5.386;2023-07-09T10:13:20;173574.31;;;34.04;43.75
64243;BME280;50573;51.512;5.386;2023-07-09T10:23:31;173670.97;;;34.40;42.62
64243;BME280;50573;51.512;5.386;2023-07-09T10:33:46;173637.34;;;34.27;43.96
64243;BME280;50573;51.512;5.386;2023-07-09T10:43:56;173852.22;;;35.08;42.19
64243;BME280;50573;51.512;5.386;2023-07-09T10:54:06;173955.63;;;35.46;40.64
64243;BME280;50573;51.512;5.386;2023-07-09T11:04:33;173948.94;;;35.44;41.79
64243;BME280;50573;51.512;5.386;2023-07-09T11:14:42;174075.19;;;35.91;39.52
64243;BME280;50573;51.512;5.386;2023-07-09T11:24:50;174209.53;;;36.41;40.22
64243;BME280;50573;51.512;5.386;2023-07-09T11:35:06;174298.13;;;36.74;38.59
64243;BME280;50573;51.512;5.386;2023-07-09T11:45:11;174282.03;;;36.68;39.96
64243;BME280;50573;51.512;5.386;2023-07-09T11:55:25;174225.63;;;36.47;39.08
64243;BME280;50573;51.512;5.386;2023-07-09T12:05:29;174073.84;;;35.90;41.95
64243;BME280;50573;51.512;5.386;2023-07-09T12:15:34;174052.28;;;35.82;42.83
64243;BME280;50573;51.512;5.386;2023-07-09T12:25:37;174041.53;;;35.78;44.96
64243;BME280;50573;51.512;5.386;2023-07-09T12:35:41;173860.25;;;35.11;45.44
64243;BME280;50573;51.512;5.386;2023-07-09T12:45:46;173709.91;;;34.54;48.33
64243;BME280;50573;51.512;5.386;2023-07-09T12:56:11;173525.94;;;33.86;49.80
64243;BME280;50573;51.512;5.386;2023-07-09T13:06:27;173295.16;;;32.99;53.71
64243;BME280;50573;51.512;5.386;2023-07-09T13:16:38;173028.22;;;31.99;58.43
64243;BME280;50573;51.512;5.386;2023-07-09T13:26:44;172784.16;;;31.08;60.14
64243;BME280;50573;51.512;5.386;2023-07-09T13:36:51;172554.97;;;30.22;60.45
64243;BME280;50573;51.512;5.386;2023-07-09T13:46:55;172403.56;;;29.65;63.35
64243;BME280;50573;51.512;5.386;2023-07-09T13:56:59;171892.00;;;27.74;75.29
64243;BME280;50573;51.512;5.386;2023-07-09T14:07:03;171505.28;;;26.29;85.50
64243;BME280;50573;51.512;5.386;2023-07-09T14:17:08;171239.16;;;25.29;92.66
64243;BME280;50573;51.512;5.386;2023-07-09T14:27:11;171627.03;;;26.74;87.86
64243;BME280;50573;51.512;5.386;2023-07-09T14:37:16;171916.06;;;27.83;79.85
64243;BME280;50573;51.512;5.386;2023-07-09T14:47:20;171846.47;;;27.57;79.62
64243;BME280;50573;51.512;5.386;2023-07-09T14:57:26;171806.31;;;27.42;79.73
64243;BME280;50573;51.512;5.386;2023-07-09T15:07:31;171735.41;;;27.15;78.68
64243;BME280;50573;51.512;5.386;2023-07-09T15:17:36;171639.06;;;26.79;79.60
64243;BME280;50573;51.512;5.386;2023-07-09T15:27:39;171651.09;;;26.83;78.51
64243;BME280;50573;51.512;5.386;2023-07-09T15:37:44;171380.91;;;25.82;83.50
64243;BME280;50573;51.512;5.386;2023-07-09T15:47:51;171319.38;;;25.59;85.54
64243;BME280;50573;51.512;5.386;2023-07-09T15:57:56;171342.13;;;25.67;86.51
64243;BME280;50573;51.512;5.386;2023-07-09T16:07:59;171534.69;;;26.40;82.59
64243;BME280;50573;51.512;5.386;2023-07-09T16:18:09;171411.66;;;25.93;81.86
64243;BME280;50573;51.512;5.386;2023-07-09T16:28:13;171569.47;;;26.53;80.42
64243;BME280;50573;51.512;5.386;2023-07-09T16:38:18;171667.19;;;26.89;79.86
64243;BME280;50573;51.512;5.386;2023-07-09T16:48:23;171817.06;;;27.46;76.77
64243;BME280;50573;51.512;5.386;2023-07-09T16:58:30;171715.31;;;27.07;77.84
64243;BME280;50573;51.512;5.386;2023-07-09T17:08:34;171688.59;;;26.97;79.26
64243;BME280;50573;51.512;5.386;2023-07-09T17:18:38;171675.19;;;26.92;80.83
64243;BME280;50573;51.512;5.386;2023-07-09T17:28:41;171693.91;;;26.99;81.44
64243;BME280;50573;51.512;5.386;2023-07-09T17:38:45;171693.91;;;26.99;75.99
64243;BME280;50573;51.512;5.386;2023-07-09T17:48:52;171651.09;;;26.83;75.71
64243;BME280;50573;51.512;5.386;2023-07-09T17:58:57;171566.81;;;26.52;76.77
64243;BME280;50573;51.512;5.386;2023-07-09T18:09:00;171511.94;;;26.31;78.01
64243;BME280;50573;51.512;5.386;2023-07-09T18:19:10;171344.78;;;25.68;80.91
64243;BME280;50573;51.512;5.386;2023-07-09T18:29:30;171180.31;;;25.07;83.05
64243;BME280;50573;51.512;5.386;2023-07-09T18:39:35;171077.44;;;24.68;84.54
64243;BME280;50573;51.512;5.386;2023-07-09T18:49:39;170903.69;;;24.03;88.32
64243;BME280;50573;51.512;5.386;2023-07-09T18:59:44;170818.19;;;23.71;89.24
64243;BME280;50573;51.512;5.386;2023-07-09T19:09:47;170815.53;;;23.70;89.01
64243;BME280;50573;51.512;5.386;2023-07-09T19:19:53;170786.16;;;23.59;89.41
64243;BME280;50573;51.512;5.386;2023-07-09T19:29:56;170736.72;;;23.40;91.68
64243;BME280;50573;51.512;5.386;2023-07-09T19:40:00;170730.06;;;23.38;90.51
64243;BME280;50573;51.512;5.386;2023-07-09T19:50:18;170653.88;;;23.09;93.52
64243;BME280;50573;51.512;5.386;2023-07-09T20:00:24;170584.44;;;22.83;96.21
64243;BME280;50573;51.512;5.386;2023-07-09T20:10:27;170557.75;;;22.73;95.23
64243;BME280;50573;51.512;5.386;2023-07-09T20:20:32;170507.03;;;22.54;96.90
64243;BME280;50573;51.512;5.386;2023-07-09T20:30:35;170493.63;;;22.49;98.02
64243;BME280;50573;51.512;5.386;2023-07-09T20:40:41;170468.28;;;22.39;98.80
64243;BME280;50573;51.512;5.386;2023-07-09T20:50:45;170433.56;;;22.26;96.82
64243;BME280;50573;51.512;5.386;2023-07-09T21:00:51;170397.59;;;22.13;96.20
64243;BME280;50573;51.512;5.386;2023-07-09T21:10:55;170361.53;;;21.99;96.05
64243;BME280;50573;51.512;5.386;2023-07-09T21:21:00;170341.53;;;21.91;96.19
64243;BME280;50573;51.512;5.386;2023-07-09T21:31:03;170273.41;;;21.66;97.14
64243;BME280;50573;51.512;5.386;2023-07-09T21:41:07;170213.38;;;21.43;97.35
64243;BME280;50573;51.512;5.386;2023-07-09T21:51:10;170166.69;;;21.26;98.42
64243;BME280;50573;51.512;5.386;2023-07-09T22:01:15;170152.06;;;21.20;97.60
64243;BME280;50573;51.512;5.386;2023-07-09T22:11:22;170120.03;;;21.08;96.71
64243;BME280;50573;51.512;5.386;2023-07-09T22:21:27;170054.63;;;20.84;95.73
64243;BME280;50573;51.512;5.386;2023-07-09T22:31:32;169978.63;;;20.55;95.93
64243;BME280;50573;51.512;5.386;2023-07-09T22:41:37;169957.31;;;20.47;95.02
64243;BME280;50573;51.512;5.386;2023-07-09T22:51:40;169928.00;;;20.36;94.99
64243;BME280;50573;51.512;5.386;2023-07-09T23:01:45;169906.66;;;20.28;95.20
64243;BME280;50573;51.512;5.386;2023-07-09T23:11:48;169909.31;;;20.29;95.34
64243;BME280;50573;51.512;5.386;2023-07-09T23:21:53;169924.00;;;20.34;93.06
64243;BME280;50573;51.512;5.386;2023-07-09T23:31:57;169903.97;;;20.27;91.04
64243;BME280;50573;51.512;5.386;2023-07-09T23:42:01;169902.63;;;20.26;90.21
64243;BME280;50573;51.512;5.386;2023-07-09T23:52:07;169890.63;;;20.22;89.19
